Time;durP1;ratioP1;P1;durP2;ratioP2;P2;SDS_P1;SDS_P2;PMS_P1;PMS_P2;Temp;Humidity;BMP_temperature;BMP_pressure;BME280_temperature;BME280_humidity;BME280_pressure;Samples;Min_cycle;Max_cycle;Signal;HPM_P1;HPM_P2
2023/07/05 00:00:41;;;;;;;21.48;11.13;;;;;;;;;;5052216;28;20029;-53
2023/07/05 00:03:07;;;;;;;21.83;11.68;;;;;;;;;;5053640;28;20029;-59
2023/07/05 00:05:40;;;;;;;27.40;12.25;;;;;;;;;;5053136;28;20021;-58
2023/07/05 00:08:06;;;;;;;22.90;11.82;;;;;;;;;;5053453;28;20416;-55
2023/07/05 00:10:32;;;;;;;21.88;12.43;;;;;;;;;;5053378;28;20032;-54
2023/07/05 00:13:01;;;;;;;23.42;12.80;;;;;;;;;;5053379;28;20017;-57
2023/07/05 00:15:29;;;;;;;22.58;12.93;;;;;;;;;;5052976;28;20034;-57
2023/07/05 00:17:55;;;;;;;24.63;12.30;;;;;;;;;;5053341;28;20489;-55
2023/07/05 00:20:22;;;;;;;22.63;13.05;;;;;;;;;;5053228;28;20086;-52
2023/07/05 00:22:48;;;;;;;21.75;12.30;;;;;;;;;;5053152;28;20025;-54
2023/07/05 00:25:14;;;;;;;22.13;12.55;;;;;;;;;;5052933;28;20040;-57
2023/07/05 00:27:40;;;;;;;30.30;13.23;;;;;;;;;;5053146;28;20551;-56
2023/07/05 00:30:07;;;;;;;24.23;14.13;;;;;;;;;;5053199;28;20037;-54
2023/07/05 00:32:33;;;;;;;21.48;12.48;;;;;;;;;;5052990;28;20029;-52
2023/07/05 00:35:00;;;;;;;24.25;13.25;;;;;;;;;;5034724;28;20044;-52
2023/07/05 00:37:26;;;;;;;22.08;12.80;;;;;;;;;;5051788;28;20025;-57
2023/07/05 00:39:52;;;;;;;26.92;13.52;;;;;;;;;;5052957;28;20044;-55
2023/07/05 00:42:18;;;;;;;22.55;12.82;;;;;;;;;;5052661;28;20468;-54
2023/07/05 00:45:04;;;;;;;23.85;12.35;;;;;;;;;;5052542;28;20115;-56
2023/07/05 00:47:33;;;;;;;22.90;12.75;;;;;;;;;;5052460;28;20040;-51
2023/07/05 00:50:01;;;;;;;22.13;12.02;;;;;;;;;;5052734;28;20504;-58
2023/07/05 00:52:28;;;;;;;25.00;12.70;;;;;;;;;;5034526;28;20459;-55
2023/07/05 00:54:56;;;;;;;21.15;12.07;;;;;;;;;;5052383;28;20048;-55
2023/07/05 00:57:24;;;;;;;20.80;12.10;;;;;;;;;;5052782;28;20087;-55
2023/07/05 01:00:02;;;;;;;19.08;11.38;;;;;;;;;;5052755;28;20021;-53
2023/07/05 01:02:30;;;;;;;19.08;11.93;;;;;;;;;;5052433;28;20017;-53
2023/07/05 01:04:56;;;;;;;21.15;11.35;;;;;;;;;;5052083;28;20029;-57
2023/07/05 01:07:22;;;;;;;19.60;11.10;;;;;;;;;;5052224;28;20021;-56
2023/07/05 01:09:48;;;;;;;20.40;12.02;;;;;;;;;;5052300;28;20384;-53
2023/07/05 01:12:19;;;;;;;20.88;12.00;;;;;;;;;;5052253;28;20112;-56
2023/07/05 01:14:48;;;;;;;21.23;12.38;;;;;;;;;;5052009;28;20025;-57
2023/07/05 01:17:14;;;;;;;;;;;;;;;;;;5052493;28;20020;-54
2023/07/05 01:19:43;;;;;;;21.20;12.45;;;;;;;;;;5052084;28;20430;-57
2023/07/05 01:22:12;;;;;;;23.65;14.15;;;;;;;;;;5034199;28;20151;-55
2023/07/05 01:25:05;;;;;;;23.13;13.63;;;;;;;;;;5033938;28;20029;-57
2023/07/05 01:27:31;;;;;;;22.58;13.80;;;;;;;;;;5014195;28;20045;-49
2023/07/05 01:30:33;;;;;;;23.05;18.95;;;;;;;;;;5047356;28;20474;-56
2023/07/05 01:33:02;;;;;;;25.70;23.00;;;;;;;;;;4951332;28;20063;-56
2023/07/05 01:35:39;;;;;;;28.48;25.63;;;;;;;;;;5033016;28;20477;-57
2023/07/05 01:38:06;;;;;;;29.13;26.27;;;;;;;;;;5038744;28;20028;-56
2023/07/05 01:40:32;;;;;;;29.85;26.95;;;;;;;;;;5046271;28;20075;-56
2023/07/05 01:43:00;;;;;;;32.55;29.42;;;;;;;;;;5040680;28;20044;-56
2023/07/05 01:45:32;;;;;;;30.95;28.25;;;;;;;;;;5031365;28;20026;-53
2023/07/05 01:48:03;;;;;;;31.67;28.60;;;;;;;;;;5031565;28;20032;-52
2023/07/05 01:50:41;;;;;;;31.20;28.20;;;;;;;;;;5040672;28;20366;-53
2023/07/05 01:53:12;;;;;;;31.55;28.63;;;;;;;;;;5027594;28;20061;-53
2023/07/05 01:55:41;;;;;;;32.63;29.45;;;;;;;;;;5049482;28;20020;-56
2023/07/05 01:58:08;;;;;;;;;;;;;;;;;;5045990;28;20509;-54
2023/07/05 02:00:36;;;;;;;35.08;31.88;;;;;;;;;;5049188;28;20317;-54
2023/07/05 02:03:04;;;;;;;33.43;30.53;;;;;;;;;;5051332;28;20029;-55
2023/07/05 02:05:30;;;;;;;;;;;;;;;;;;5051616;28;20362;-55
2023/07/05 02:07:57;;;;;;;34.88;31.67;;;;;;;;;;5047067;28;19995;-56
2023/07/05 02:10:23;;;;;;;36.10;33.00;;;;;;;;;;5030028;28;20021;-54
2023/07/05 02:12:51;;;;;;;34.30;31.10;;;;;;;;;;5051282;28;20083;-56
2023/07/05 02:15:17;;;;;;;34.03;31.02;;;;;;;;;;5051264;28;20033;-55
2023/07/05 02:17:43;;;;;;;34.78;31.67;;;;;;;;;;5051500;28;20381;-53
2023/07/05 02:20:09;;;;;;;33.42;29.98;;;;;;;;;;5051495;28;20024;-55
2023/07/05 02:22:35;;;;;;;32.53;29.77;;;;;;;;;;5051292;28;20033;-55
2023/07/05 02:25:02;;;;;;;33.38;30.10;;;;;;;;;;5051165;28;20108;-54
2023/07/05 02:27:28;;;;;;;33.25;30.35;;;;;;;;;;5042952;28;20029;-50
2023/07/05 02:29:55;;;;;;;33.20;30.40;;;;;;;;;;5051543;28;20366;-51
2023/07/05 02:32:21;;;;;;;33.28;30.27;;;;;;;;;;5051248;28;20029;-54
2023/07/05 02:34:47;;;;;;;32.28;29.52;;;;;;;;;;5051066;28;20071;-53
2023/07/05 02:37:14;;;;;;;31.90;28.95;;;;;;;;;;5051532;28;20115;-56
2023/07/05 02:39:40;;;;;;;32.35;29.35;;;;;;;;;;5051126;28;20036;-55
2023/07/05 02:42:07;;;;;;;32.88;29.92;;;;;;;;;;5051067;28;20043;-57
2023/07/05 02:44:33;;;;;;;32.53;29.50;;;;;;;;;;5050906;28;20436;-50
2023/07/05 02:46:59;;;;;;;32.95;30.08;;;;;;;;;;5051415;28;20070;-52
2023/07/05 02:49:25;;;;;;;34.17;30.75;;;;;;;;;;5051282;28;20496;-52
2023/07/05 02:51:51;;;;;;;32.17;29.27;;;;;;;;;;5050991;28;20030;-53
2023/07/05 02:54:17;;;;;;;31.10;28.20;;;;;;;;;;5051209;28;20032;-56
2023/07/05 02:56:43;;;;;;;31.25;28.52;;;;;;;;;;5051034;28;20025;-54
2023/07/05 02:59:09;;;;;;;31.65;28.90;;;;;;;;;;5051630;28;20021;-54
2023/07/05 03:01:35;;;;;;;33.75;30.50;;;;;;;;;;5054456;28;20040;-55
2023/07/05 03:04:01;;;;;;;30.55;27.92;;;;;;;;;;5054399;28;20027;-52
2023/07/05 03:06:27;;;;;;;31.38;28.58;;;;;;;;;;5054279;28;20488;-54
2023/07/05 03:08:53;;;;;;;32.42;29.73;;;;;;;;;;5036587;28;20032;-55
2023/07/05 03:11:19;;;;;;;30.35;27.58;;;;;;;;;;5054470;28;20025;-55
2023/07/05 03:13:45;;;;;;;29.98;27.08;;;;;;;;;;5054562;28;20370;-49
2023/07/05 03:16:11;;;;;;;27.45;24.95;;;;;;;;;;5036820;28;20033;-56
2023/07/05 03:18:37;;;;;;;28.17;25.45;;;;;;;;;;5036812;28;20382;-57
2023/07/05 03:21:03;;;;;;;28.20;25.50;;;;;;;;;;5054599;28;20037;-55
2023/07/05 03:23:29;;;;;;;27.92;25.33;;;;;;;;;;5054443;28;20025;-54
2023/07/05 03:25:57;;;;;;;29.42;26.60;;;;;;;;;;5053652;28;20079;-55
2023/07/05 03:28:23;;;;;;;27.73;25.10;;;;;;;;;;5054188;28;20021;-56
2023/07/05 03:30:55;;;;;;;28.33;25.75;;;;;;;;;;5054103;28;20017;-55
2023/07/05 03:33:21;;;;;;;29.40;26.90;;;;;;;;;;5036158;28;20477;-58
2023/07/05 03:36:00;;;;;;;28.48;26.05;;;;;;;;;;5053670;28;20140;-57
2023/07/05 03:38:27;;;;;;;28.88;26.27;;;;;;;;;;5053978;28;20074;-54
2023/07/05 03:41:00;;;;;;;30.20;27.55;;;;;;;;;;5054280;28;20472;-52
2023/07/05 03:43:26;;;;;;;30.63;27.92;;;;;;;;;;5053992;28;20021;-56
2023/07/05 03:45:53;;;;;;;29.58;26.58;;;;;;;;;;5053597;28;20032;-51
2023/07/05 03:48:20;;;;;;;29.10;26.60;;;;;;;;;;5053595;28;20104;-55
2023/07/05 03:50:46;;;;;;;27.90;25.48;;;;;;;;;;5053547;28;20017;-54
2023/07/05 03:53:12;;;;;;;27.98;25.52;;;;;;;;;;5053501;28;20044;-51
2023/07/05 03:55:37;;;;;;;28.92;26.33;;;;;;;;;;5053276;28;20119;-54
2023/07/05 03:58:03;;;;;;;27.77;25.17;;;;;;;;;;5053442;28;20023;-51
2023/07/05 04:00:29;;;;;;;28.05;25.55;;;;;;;;;;5053589;28;20481;-55
2023/07/05 04:02:55;;;;;;;27.70;25.20;;;;;;;;;;5053529;28;20045;-51
2023/07/05 04:05:21;;;;;;;26.92;24.58;;;;;;;;;;5053172;28;20020;-53
2023/07/05 04:07:47;;;;;;;27.20;24.63;;;;;;;;;;5053286;28;20366;-56
2023/07/05 04:10:13;;;;;;;26.65;24.17;;;;;;;;;;5052743;28;20041;-55
2023/07/05 04:12:39;;;;;;;25.63;23.33;;;;;;;;;;5052592;28;20071;-54
2023/07/05 04:15:06;;;;;;;24.40;22.10;;;;;;;;;;5052988;28;20021;-57
2023/07/05 04:17:32;;;;;;;23.17;20.88;;;;;;;;;;5053074;28;20116;-54
2023/07/05 04:19:58;;;;;;;23.10;20.90;;;;;;;;;;5053058;28;20017;-56
2023/07/05 04:22:24;;;;;;;22.73;20.50;;;;;;;;;;5052947;28;20107;-56
2023/07/05 04:24:50;;;;;;;23.00;20.80;;;;;;;;;;5052792;28;20061;-54
2023/07/05 04:27:16;;;;;;;21.92;19.80;;;;;;;;;;5052848;28;20029;-51
2023/07/05 04:29:42;;;;;;;22.25;20.05;;;;;;;;;;5052786;28;20029;-54
2023/07/05 04:32:08;;;;;;;21.35;19.35;;;;;;;;;;5052546;28;20047;-54
2023/07/05 04:34:34;;;;;;;21.15;18.92;;;;;;;;;;5052503;28;20481;-52
2023/07/05 04:37:00;;;;;;;19.85;17.95;;;;;;;;;;5052707;28;20112;-55
2023/07/05 04:39:26;;;;;;;20.10;18.00;;;;;;;;;;5052940;28;20025;-55
2023/07/05 04:41:52;;;;;;;17.85;16.00;;;;;;;;;;5034573;28;20089;-56
2023/07/05 04:44:18;;;;;;;16.80;14.55;;;;;;;;;;5052298;28;20041;-53
2023/07/05 04:46:44;;;;;;;17.30;13.25;;;;;;;;;;5052483;28;20029;-55
2023/07/05 04:49:10;;;;;;;15.85;12.20;;;;;;;;;;5052657;28;20017;-54
2023/07/05 04:51:36;;;;;;;15.40;11.07;;;;;;;;;;5052245;28;20559;-54
2023/07/05 04:54:02;;;;;;;14.93;9.80;;;;;;;;;;5052360;28;20021;-54
2023/07/05 04:56:28;;;;;;;17.55;10.40;;;;;;;;;;5052151;28;20113;-54
2023/07/05 04:58:54;;;;;;;16.00;9.77;;;;;;;;;;5052169;28;20029;-54
2023/07/05 05:01:20;;;;;;;16.20;10.20;;;;;;;;;;5051965;28;20493;-55
2023/07/05 05:03:46;;;;;;;15.48;10.38;;;;;;;;;;5051951;28;20090;-55
2023/07/05 05:06:12;;;;;;;15.13;9.35;;;;;;;;;;5033929;28;20469;-56
2023/07/05 05:08:38;;;;;;;17.63;10.80;;;;;;;;;;5051880;28;20074;-54
2023/07/05 05:11:04;;;;;;;15.40;8.80;;;;;;;;;;5034257;28;20350;-55
2023/07/05 05:13:31;;;;;;;14.13;8.13;;;;;;;;;;5051906;28;20416;-52
2023/07/05 05:15:57;;;;;;;15.13;8.55;;;;;;;;;;5051661;28;20033;-51
2023/07/05 05:18:24;;;;;;;15.95;8.63;;;;;;;;;;5052129;28;20504;-53
2023/07/05 05:20:50;;;;;;;15.50;8.73;;;;;;;;;;5051719;28;20029;-56
2023/07/05 05:23:16;;;;;;;15.88;9.07;;;;;;;;;;5051501;28;20469;-53
2023/07/05 05:25:43;;;;;;;20.42;9.88;;;;;;;;;;5051555;28;20025;-57
2023/07/05 05:28:09;;;;;;;16.13;9.05;;;;;;;;;;5051826;28;20481;-55
2023/07/05 05:30:35;;;;;;;16.15;9.15;;;;;;;;;;5051754;28;20029;-54
2023/07/05 05:33:02;;;;;;;15.57;9.13;;;;;;;;;;5051648;28;20032;-52
2023/07/05 05:35:28;;;;;;;16.40;9.10;;;;;;;;;;5051326;28;20546;-55
2023/07/05 05:37:54;;;;;;;17.63;9.25;;;;;;;;;;5051857;28;20453;-50
2023/07/05 05:40:20;;;;;;;16.35;8.95;;;;;;;;;;5033608;28;20049;-56
2023/07/05 05:42:46;;;;;;;15.20;9.18;;;;;;;;;;5051549;28;20028;-54
2023/07/05 05:45:12;;;;;;;16.10;9.60;;;;;;;;;;5051241;28;20481;-52
2023/07/05 05:47:38;;;;;;;16.73;9.35;;;;;;;;;;5051504;28;20032;-53
2023/07/05 05:50:04;;;;;;;17.20;9.13;;;;;;;;;;5051742;28;20029;-56
2023/07/05 05:52:30;;;;;;;16.73;9.48;;;;;;;;;;5051469;28;20040;-56
2023/07/05 05:54:56;;;;;;;17.48;9.98;;;;;;;;;;5050947;28;20022;-53
2023/07/05 05:57:22;;;;;;;16.02;9.23;;;;;;;;;;5052528;28;20146;-55
2023/07/05 05:59:48;;;;;;;16.52;9.52;;;;;;;;;;5045304;28;20029;-54
2023/07/05 06:02:14;;;;;;;20.48;9.73;;;;;;;;;;5040711;28;20022;-54
2023/07/05 06:04:40;;;;;;;16.42;8.38;;;;;;;;;;5044884;28;20048;-56
2023/07/05 06:07:06;;;;;;;15.90;8.82;;;;;;;;;;5051015;28;20037;-55
2023/07/05 06:09:39;;;;;;;17.67;8.40;;;;;;;;;;5032359;28;20096;-56
2023/07/05 06:12:05;;;;;;;16.38;8.98;;;;;;;;;;5031062;28;20170;-55
2023/07/05 06:14:31;;;;;;;17.08;9.05;;;;;;;;;;5030883;28;20502;-55
2023/07/05 06:16:57;;;;;;;17.65;9.30;;;;;;;;;;5022687;28;20025;-53
2023/07/05 06:19:23;;;;;;;17.58;8.95;;;;;;;;;;5050729;28;20142;-54
2023/07/05 06:21:49;;;;;;;16.13;9.20;;;;;;;;;;5050849;28;20100;-53
2023/07/05 06:24:15;;;;;;;17.10;8.90;;;;;;;;;;5050701;28;20099;-53
2023/07/05 06:26:41;;;;;;;16.38;9.18;;;;;;;;;;5051189;28;20033;-53
2023/07/05 06:29:07;;;;;;;17.73;9.55;;;;;;;;;;5050926;28;20099;-55
2023/07/05 06:31:33;;;;;;;16.52;9.60;;;;;;;;;;5051015;28;20052;-55
2023/07/05 06:34:00;;;;;;;17.75;9.25;;;;;;;;;;5042035;28;20009;-57
2023/07/05 06:36:26;;;;;;;16.75;9.20;;;;;;;;;;5034794;28;20025;-55
2023/07/05 06:38:52;;;;;;;17.52;9.10;;;;;;;;;;5017408;28;20037;-51
2023/07/05 06:41:18;;;;;;;17.20;9.50;;;;;;;;;;5017467;28;20032;-55
2023/07/05 06:43:44;;;;;;;17.52;9.32;;;;;;;;;;5034715;28;20021;-54
2023/07/05 06:46:10;;;;;;;17.23;9.93;;;;;;;;;;5016885;28;20029;-58
2023/07/05 06:48:36;;;;;;;17.92;9.65;;;;;;;;;;5034686;28;20021;-52
2023/07/05 06:51:03;;;;;;;17.92;9.88;;;;;;;;;;5016857;28;20028;-57
2023/07/05 06:53:29;;;;;;;17.60;9.40;;;;;;;;;;5034310;28;20049;-56
2023/07/05 06:55:56;;;;;;;16.58;9.27;;;;;;;;;;5034375;28;20036;-54
2023/07/05 06:58:22;;;;;;;16.75;9.38;;;;;;;;;;5034504;28;20025;-55
2023/07/05 07:00:48;;;;;;;17.05;9.10;;;;;;;;;;5034218;28;20025;-55
2023/07/05 07:03:14;;;;;;;17.27;9.88;;;;;;;;;;5034526;28;20036;-56
2023/07/05 07:05:41;;;;;;;17.02;9.65;;;;;;;;;;5034590;28;20025;-49
2023/07/05 07:08:07;;;;;;;17.17;9.02;;;;;;;;;;5034433;28;20371;-54
2023/07/05 07:10:35;;;;;;;15.63;9.75;;;;;;;;;;5034228;28;20029;-50
2023/07/05 07:13:03;;;;;;;16.85;9.60;;;;;;;;;;5034130;28;20022;-46
2023/07/05 07:15:29;;;;;;;15.98;9.13;;;;;;;;;;5016057;28;20037;-46
2023/07/05 07:17:55;;;;;;;16.23;9.45;;;;;;;;;;5034108;28;20026;-51
2023/07/05 07:20:21;;;;;;;15.82;9.13;;;;;;;;;;5034175;28;20034;-50
2023/07/05 07:22:47;;;;;;;17.90;9.38;;;;;;;;;;5033770;28;20696;-50
2023/07/05 07:25:12;;;;;;;16.90;9.60;;;;;;;;;;5033617;28;20033;-55
2023/07/05 07:27:38;;;;;;;16.80;10.02;;;;;;;;;;5033942;28;20052;-50
2023/07/05 07:30:05;;;;;;;15.93;9.32;;;;;;;;;;5033908;28;20025;-54
2023/07/05 07:32:31;;;;;;;15.98;9.23;;;;;;;;;;5033791;28;20116;-54
2023/07/05 07:34:57;;;;;;;19.95;9.60;;;;;;;;;;5047700;28;20100;-54
2023/07/05 07:37:23;;;;;;;17.20;9.35;;;;;;;;;;5053799;28;20029;-56
2023/07/05 07:39:49;;;;;;;16.00;9.45;;;;;;;;;;5053861;28;20485;-55
2023/07/05 07:42:15;;;;;;;17.15;9.30;;;;;;;;;;5053603;28;20052;-55
2023/07/05 07:44:41;;;;;;;17.05;8.95;;;;;;;;;;5046130;28;20037;-51
2023/07/05 07:47:07;;;;;;;18.00;9.65;;;;;;;;;;5045657;28;20079;-54
2023/07/05 07:49:33;;;;;;;16.17;9.23;;;;;;;;;;5043142;28;20082;-55
2023/07/05 07:51:59;;;;;;;19.70;9.45;;;;;;;;;;5033451;28;20120;-54
2023/07/05 07:54:31;;;;;;;16.88;9.50;;;;;;;;;;5033314;28;20071;-57
2023/07/05 07:56:57;;;;;;;17.13;9.25;;;;;;;;;;5015806;28;20501;-52
2023/07/05 07:59:24;;;;;;;16.83;9.02;;;;;;;;;;5015595;28;20041;-59
2023/07/05 08:01:50;;;;;;;17.17;9.98;;;;;;;;;;5051729;28;20029;-54
2023/07/05 08:04:17;;;;;;;14.85;9.18;;;;;;;;;;5052737;28;20101;-54
2023/07/05 08:06:44;;;;;;;16.10;9.05;;;;;;;;;;5040490;28;20083;-56
2023/07/05 08:09:12;;;;;;;16.70;9.15;;;;;;;;;;5049812;28;20642;-54
2023/07/05 08:11:39;;;;;;;16.35;9.02;;;;;;;;;;5049532;28;20020;-53
2023/07/05 08:14:05;;;;;;;15.02;8.27;;;;;;;;;;5031687;28;20048;-57
2023/07/05 08:16:31;;;;;;;15.80;8.43;;;;;;;;;;5050029;28;20315;-56
2023/07/05 08:18:57;;;;;;;18.67;8.85;;;;;;;;;;5049890;28;20029;-51
2023/07/05 08:21:23;;;;;;;19.85;9.20;;;;;;;;;;5050699;28;20032;-53
2023/07/05 08:23:49;;;;;;;16.33;9.35;;;;;;;;;;5052550;28;20029;-55
2023/07/05 08:26:16;;;;;;;16.92;9.10;;;;;;;;;;5052514;28;20400;-57
2023/07/05 08:28:42;;;;;;;17.60;9.20;;;;;;;;;;5052736;28;20017;-52
2023/07/05 08:31:09;;;;;;;21.70;9.10;;;;;;;;;;5052320;28;20044;-52
2023/07/05 08:33:36;;;;;;;16.50;8.82;;;;;;;;;;5052593;28;20025;-52
2023/07/05 08:36:04;;;;;;;22.75;9.57;;;;;;;;;;5051944;28;20116;-48
2023/07/05 08:38:31;;;;;;;15.85;9.10;;;;;;;;;;5052462;28;20435;-50
2023/07/05 08:41:01;;;;;;;15.13;9.10;;;;;;;;;;5052358;28;20033;-50
2023/07/05 08:43:39;;;;;;;16.38;8.30;;;;;;;;;;5052302;28;20028;-53
2023/07/05 08:46:09;;;;;;;15.93;7.78;;;;;;;;;;5052143;28;20497;-52
2023/07/05 08:48:35;;;;;;;16.05;7.80;;;;;;;;;;5052375;28;20032;-51
2023/07/05 08:51:02;;;;;;;16.08;8.93;;;;;;;;;;5051954;28;20013;-54
2023/07/05 08:53:29;;;;;;;17.70;8.20;;;;;;;;;;5051915;28;20033;-52
2023/07/05 08:55:55;;;;;;;15.30;8.20;;;;;;;;;;5051859;28;20025;-55
2023/07/05 08:58:23;;;;;;;17.45;8.70;;;;;;;;;;5051594;28;20028;-54
2023/07/05 09:00:52;;;;;;;15.68;8.40;;;;;;;;;;5052111;28;20029;-54
2023/07/05 09:03:20;;;;;;;14.65;8.38;;;;;;;;;;5051820;28;20029;-51
2023/07/05 09:05:58;;;;;;;16.17;8.32;;;;;;;;;;5050106;28;20080;-55
2023/07/05 09:08:24;;;;;;;15.10;8.15;;;;;;;;;;5047544;28;20118;-50
2023/07/05 09:10:55;;;;;;;16.60;9.10;;;;;;;;;;5047379;28;20072;-50
2023/07/05 09:13:29;;;;;;;15.27;7.78;;;;;;;;;;5039830;28;20025;-50
2023/07/05 09:16:04;;;;;;;17.17;8.18;;;;;;;;;;5041276;28;20069;-48
2023/07/05 09:18:33;;;;;;;15.90;8.15;;;;;;;;;;5049103;28;20025;-53
2023/07/05 09:20:59;;;;;;;;;;;;;;;;;;5043819;28;20092;-53
2023/07/05 09:23:25;;;;;;;17.40;8.50;;;;;;;;;;5042695;28;19999;-53
2023/07/05 09:25:53;;;;;;;14.77;8.02;;;;;;;;;;5033810;28;20067;-50
2023/07/05 09:28:29;;;;;;;19.08;7.82;;;;;;;;;;5032942;28;20048;-48
2023/07/05 09:30:58;;;;;;;16.80;8.18;;;;;;;;;;5050539;28;20017;-55
2023/07/05 09:33:33;;;;;;;14.90;7.95;;;;;;;;;;5042599;28;20029;-53
2023/07/05 09:36:04;;;;;;;15.48;8.25;;;;;;;;;;5042784;28;20029;-50
2023/07/05 09:38:31;;;;;;;16.25;8.02;;;;;;;;;;5042941;28;20021;-51
2023/07/05 09:41:06;;;;;;;17.58;8.07;;;;;;;;;;5050998;28;20418;-52
2023/07/05 09:43:33;;;;;;;18.52;9.18;;;;;;;;;;5042723;28;20100;-54
2023/07/05 09:46:03;;;;;;;15.55;8.35;;;;;;;;;;5049918;28;20385;-55
2023/07/05 09:48:31;;;;;;;16.35;8.38;;;;;;;;;;5050747;28;20108;-52
2023/07/05 09:51:03;;;;;;;15.88;8.40;;;;;;;;;;5049431;28;20021;-53
2023/07/05 09:53:29;;;;;;;16.48;8.68;;;;;;;;;;5029074;28;20032;-54
2023/07/05 09:56:03;;;;;;;18.40;8.93;;;;;;;;;;5030189;28;20379;-54
2023/07/05 09:58:29;;;;;;;16.73;9.18;;;;;;;;;;5031329;28;20025;-49
2023/07/05 10:00:55;;;;;;;17.52;8.82;;;;;;;;;;5032399;28;20044;-51
2023/07/05 10:03:21;;;;;;;18.60;9.00;;;;;;;;;;5043191;28;20508;-55
2023/07/05 10:05:54;;;;;;;15.00;8.45;;;;;;;;;;5048424;28;20025;-53
2023/07/05 10:08:22;;;;;;;15.18;8.43;;;;;;;;;;5034173;28;20079;-52
2023/07/05 10:10:48;;;;;;;17.85;8.90;;;;;;;;;;5054955;28;20086;-55
2023/07/05 10:13:21;;;;;;;17.23;8.55;;;;;;;;;;5054931;28;20112;-54
2023/07/05 10:15:49;;;;;;;17.05;8.20;;;;;;;;;;5044089;28;20051;-50
2023/07/05 10:18:26;;;;;;;16.85;8.00;;;;;;;;;;5044303;28;20068;-54
2023/07/05 10:20:52;;;;;;;17.77;9.02;;;;;;;;;;5053923;28;20029;-53
2023/07/05 10:23:22;;;;;;;16.25;8.50;;;;;;;;;;5053737;28;20033;-53
2023/07/05 10:25:48;;;;;;;14.90;7.93;;;;;;;;;;5054108;28;20021;-52
2023/07/05 10:28:18;;;;;;;16.35;8.80;;;;;;;;;;5054688;28;20462;-52
2023/07/05 10:31:03;;;;;;;16.58;8.40;;;;;;;;;;5053915;28;20111;-53
2023/07/05 10:33:31;;;;;;;16.17;9.13;;;;;;;;;;5054382;28;20021;-53
2023/07/05 10:36:02;;;;;;;16.27;9.00;;;;;;;;;;5052441;28;20029;-55
2023/07/05 10:38:29;;;;;;;15.32;8.45;;;;;;;;;;5054631;28;20028;-48
2023/07/05 10:40:57;;;;;;;16.70;8.07;;;;;;;;;;5053867;28;20017;-50
2023/07/05 10:43:23;;;;;;;17.88;9.32;;;;;;;;;;5036544;28;20025;-51
2023/07/05 10:45:49;;;;;;;16.90;9.13;;;;;;;;;;5054384;28;20466;-51
2023/07/05 10:48:23;;;;;;;15.75;9.20;;;;;;;;;;5054720;28;20025;-55
2023/07/05 10:50:50;;;;;;;18.17;9.10;;;;;;;;;;5036833;28;20112;-48
2023/07/05 10:53:18;;;;;;;16.25;9.88;;;;;;;;;;5054054;28;20040;-56
2023/07/05 10:55:44;;;;;;;17.75;9.10;;;;;;;;;;5053949;28;20033;-54
2023/07/05 10:58:17;;;;;;;15.70;8.98;;;;;;;;;;5054384;28;20112;-52
2023/07/05 11:00:48;;;;;;;17.42;9.23;;;;;;;;;;5054474;28;20121;-50
2023/07/05 11:03:21;;;;;;;16.90;8.90;;;;;;;;;;5054177;28;20029;-55
2023/07/05 11:05:49;;;;;;;18.92;9.13;;;;;;;;;;5054198;28;20033;-53
2023/07/05 11:08:18;;;;;;;18.98;8.70;;;;;;;;;;5054294;28;20025;-51
2023/07/05 11:10:45;;;;;;;18.83;9.18;;;;;;;;;;5054116;28;20036;-51
2023/07/05 11:13:17;;;;;;;16.25;8.75;;;;;;;;;;5054065;28;20386;-56
2023/07/05 11:15:44;;;;;;;18.98;8.60;;;;;;;;;;5047956;28;20029;-53
2023/07/05 11:18:14;;;;;;;17.30;8.60;;;;;;;;;;5024205;28;20026;-51
2023/07/05 11:20:40;;;;;;;21.85;9.02;;;;;;;;;;4699926;28;10000194;-54
2023/07/05 11:23:10;;;;;;;17.17;8.23;;;;;;;;;;5047859;28;20053;-56
2023/07/05 11:26:08;;;;;;;17.15;8.85;;;;;;;;;;5039712;28;20039;-53
2023/07/05 11:28:36;;;;;;;16.88;8.35;;;;;;;;;;5006553;28;20037;-54
2023/07/05 11:31:03;;;;;;;17.52;8.45;;;;;;;;;;5015551;28;20426;-54
2023/07/05 11:33:29;;;;;;;16.33;8.93;;;;;;;;;;5030515;28;20159;-51
2023/07/05 11:35:59;;;;;;;17.40;8.77;;;;;;;;;;5030604;28;20025;-56
2023/07/05 11:38:40;;;;;;;15.98;8.35;;;;;;;;;;5038097;28;20025;-51
2023/07/05 11:41:25;;;;;;;15.57;8.40;;;;;;;;;;5050805;28;20044;-51
2023/07/05 11:44:01;;;;;;;16.63;8.65;;;;;;;;;;5051052;28;20029;-53
2023/07/05 11:46:40;;;;;;;18.00;9.00;;;;;;;;;;5050673;28;20021;-51
2023/07/05 11:49:06;;;;;;;;;;;;;;;;;;5051435;28;20060;-55
2023/07/05 11:51:32;;;;;;;19.00;9.35;;;;;;;;;;5050239;28;19960;-56
2023/07/05 11:54:01;;;;;;;16.23;9.32;;;;;;;;;;5031950;28;20382;-55
2023/07/05 11:56:28;;;;;;;19.63;10.32;;;;;;;;;;5018307;28;20100;-55
2023/07/05 11:58:55;;;;;;;18.42;10.30;;;;;;;;;;5030281;28;20059;-53
2023/07/05 12:01:27;;;;;;;15.85;10.00;;;;;;;;;;5037032;28;20059;-51
2023/07/05 12:03:55;;;;;;;18.65;10.48;;;;;;;;;;5041958;28;20056;-55
2023/07/05 12:06:24;;;;;;;20.00;11.30;;;;;;;;;;5050026;28;20141;-53
2023/07/05 12:08:55;;;;;;;20.10;11.30;;;;;;;;;;5050793;28;20104;-51
2023/07/05 12:11:29;;;;;;;20.38;10.80;;;;;;;;;;5050032;28;20032;-54
2023/07/05 12:13:59;;;;;;;17.83;10.18;;;;;;;;;;5049938;28;20113;-56
2023/07/05 12:16:25;;;;;;;18.40;11.10;;;;;;;;;;5031981;28;20593;-57
2023/07/05 12:18:51;;;;;;;17.55;10.93;;;;;;;;;;5049658;28;20040;-53
2023/07/05 12:21:17;;;;;;;17.98;11.23;;;;;;;;;;5041975;28;20033;-53
2023/07/05 12:23:45;;;;;;;16.58;10.73;;;;;;;;;;5038003;28;20099;-53
2023/07/05 12:26:37;;;;;;;18.65;10.73;;;;;;;;;;5029392;28;20034;-51
2023/07/05 12:29:15;;;;;;;22.83;10.68;;;;;;;;;;5030355;28;20033;-52
2023/07/05 12:31:43;;;;;;;18.02;11.48;;;;;;;;;;5049148;28;20104;-54
2023/07/05 12:34:18;;;;;;;16.40;10.50;;;;;;;;;;5049528;28;20489;-57
2023/07/05 12:36:44;;;;;;;15.13;10.80;;;;;;;;;;5049666;28;20090;-58
2023/07/05 12:39:13;;;;;;;19.25;11.10;;;;;;;;;;5049494;28;20120;-58
2023/07/05 12:41:39;;;;;;;18.95;11.93;;;;;;;;;;5049616;28;20107;-56
2023/07/05 12:44:09;;;;;;;19.27;11.63;;;;;;;;;;5049566;28;20445;-51
2023/07/05 12:46:36;;;;;;;16.20;11.00;;;;;;;;;;5049779;28;20033;-57
2023/07/05 12:49:12;;;;;;;16.65;11.30;;;;;;;;;;5051686;28;20028;-56
2023/07/05 12:51:47;;;;;;;18.27;11.38;;;;;;;;;;5051451;28;20021;-52
2023/07/05 12:54:14;;;;;;;19.30;12.27;;;;;;;;;;5052400;28;20061;-54
2023/07/05 12:56:42;;;;;;;15.93;11.35;;;;;;;;;;5052040;28;20448;-55
2023/07/05 12:59:16;;;;;;;18.50;11.93;;;;;;;;;;5052317;28;20060;-57
2023/07/05 13:01:45;;;;;;;18.40;10.63;;;;;;;;;;5043694;28;20029;-55
2023/07/05 13:04:17;;;;;;;17.13;10.93;;;;;;;;;;5037468;28;20032;-57
2023/07/05 13:06:44;;;;;;;15.75;10.50;;;;;;;;;;5032004;28;20040;-58
2023/07/05 13:09:10;;;;;;;18.13;11.23;;;;;;;;;;5031955;28;20032;-53
2023/07/05 13:11:37;;;;;;;17.08;10.93;;;;;;;;;;5032094;28;20026;-57
2023/07/05 13:14:08;;;;;;;16.13;11.00;;;;;;;;;;5031812;28;20018;-55
2023/07/05 13:16:47;;;;;;;16.98;10.30;;;;;;;;;;5031912;28;20468;-52
2023/07/05 13:19:13;;;;;;;16.23;10.95;;;;;;;;;;5031966;28;20051;-57
2023/07/05 13:21:49;;;;;;;20.75;11.85;;;;;;;;;;5031762;28;20025;-54
2023/07/05 13:24:27;;;;;;;17.80;11.07;;;;;;;;;;5015075;28;20032;-56
2023/07/05 13:26:55;;;;;;;19.25;11.43;;;;;;;;;;5033668;28;20063;-57
2023/07/05 13:29:37;;;;;;;19.77;11.68;;;;;;;;;;5038159;28;20049;-58
2023/07/05 13:32:05;;;;;;;17.42;11.77;;;;;;;;;;5052942;28;20025;-55
2023/07/05 13:34:31;;;;;;;18.48;11.45;;;;;;;;;;5051272;28;20032;-57
2023/07/05 13:37:08;;;;;;;15.57;11.07;;;;;;;;;;5051591;28;20036;-53
2023/07/05 13:39:35;;;;;;;17.60;11.00;;;;;;;;;;4698599;28;9999864;-52
2023/07/05 13:42:03;;;;;;;16.10;10.85;;;;;;;;;;5044727;28;20036;-56
2023/07/05 13:44:29;;;;;;;18.65;11.50;;;;;;;;;;5045330;28;20456;-56
2023/07/05 13:46:55;;;;;;;17.73;11.48;;;;;;;;;;5057739;28;20481;-54
2023/07/05 13:49:21;;;;;;;17.75;12.05;;;;;;;;;;5051860;28;20048;-59
2023/07/05 13:51:50;;;;;;;18.77;11.73;;;;;;;;;;5049644;28;20025;-57
2023/07/05 13:54:16;;;;;;;22.27;11.20;;;;;;;;;;5048903;28;20083;-51
2023/07/05 13:56:42;;;;;;;16.67;11.60;;;;;;;;;;5031181;28;20140;-56
2023/07/05 13:59:10;;;;;;;19.83;11.90;;;;;;;;;;5045115;28;20037;-54
2023/07/05 14:01:36;;;;;;;16.00;11.40;;;;;;;;;;5047787;28;20025;-59
2023/07/05 14:04:02;;;;;;;18.33;12.27;;;;;;;;;;5040594;28;20541;-53
2023/07/05 14:06:30;;;;;;;17.52;12.38;;;;;;;;;;5032350;28;20124;-58
2023/07/05 14:08:56;;;;;;;18.85;12.32;;;;;;;;;;5028248;28;20423;-55
2023/07/05 14:11:26;;;;;;;17.38;11.70;;;;;;;;;;5028272;28;20363;-57
2023/07/05 14:13:52;;;;;;;18.35;11.38;;;;;;;;;;5036766;28;20032;-59
2023/07/05 14:16:19;;;;;;;18.17;11.30;;;;;;;;;;5042854;28;20625;-57
2023/07/05 14:18:45;;;;;;;20.73;11.40;;;;;;;;;;5041141;28;20071;-57
2023/07/05 14:21:30;;;;;;;19.23;10.93;;;;;;;;;;5042041;28;20033;-56
2023/07/05 14:23:57;;;;;;;16.77;10.63;;;;;;;;;;5047837;28;20713;-52
2023/07/05 14:26:24;;;;;;;18.17;10.77;;;;;;;;;;5047363;28;20488;-57
2023/07/05 14:28:50;;;;;;;18.38;10.77;;;;;;;;;;5047137;28;20030;-55